Time;durP1;ratioP1;P1;durP2;ratioP2;P2;SDS_P1;SDS_P2;PMS_P1;PMS_P2;Temp;Humidity;BMP_temperature;BMP_pressure;BME280_temperature;BME280_humidity;BME280_pressure;Samples;Min_cycle;Max_cycle;Signal;HPM_P1;HPM_P2
2021/06/14 00:02:20;;;;;;;2.30;1.53;;;;;;;12.01;87.09;94516.00;5135206;27;20197;-79
2021/06/14 00:04:46;;;;;;;4.20;2.10;;;;;;;12.05;87.90;94512.00;5135044;27;20655;-80
2021/06/14 00:07:16;;;;;;;3.37;1.90;;;;;;;12.01;87.85;94500.31;5134905;27;20655;-79
2021/06/14 00:09:42;;;;;;;5.20;2.20;;;;;;;12.16;85.39;94503.63;5135150;27;20228;-80
2021/06/14 00:12:10;;;;;;;7.27;2.10;;;;;;;12.25;84.20;94500.88;5135090;27;20197;-79
2021/06/14 00:14:36;;;;;;;3.80;1.93;;;;;;;12.25;83.46;94506.91;5135096;27;20288;-81
2021/06/14 00:17:03;;;;;;;6.13;2.00;;;;;;;12.19;84.26;94498.00;5135027;27;20192;-77
2021/06/14 00:19:30;;;;;;;4.87;2.20;;;;;;;12.20;83.74;94499.63;5134856;27;20204;-80
2021/06/14 00:21:56;;;;;;;9.10;1.80;;;;;;;12.18;83.83;94501.63;5134821;27;20201;-77
2021/06/14 00:24:24;;;;;;;4.23;1.83;;;;;;;12.22;83.07;94486.34;5134763;27;20650;-81
2021/06/14 00:26:51;;;;;;;3.47;1.90;;;;;;;12.17;83.44;94492.16;5134880;27;20220;-78
2021/06/14 00:29:17;;;;;;;6.87;1.80;;;;;;;12.22;83.11;94491.56;5134098;27;20464;-79
2021/06/14 00:31:43;;;;;;;6.40;2.20;;;;;;;12.24;82.29;94494.81;5134606;27;20201;-80
2021/06/14 00:34:10;;;;;;;5.00;1.97;;;;;;;12.13;82.88;94492.75;5134690;27;20196;-80
2021/06/14 00:36:36;;;;;;;4.33;1.80;;;;;;;11.99;84.00;94487.41;5134176;27;20688;-78
2021/06/14 00:39:04;;;;;;;6.90;2.00;;;;;;;11.97;82.71;94478.13;5134626;27;20196;-79
2021/06/14 00:41:32;;;;;;;5.23;2.10;;;;;;;11.93;83.80;94479.53;5134698;27;20192;-79
2021/06/14 00:43:58;;;;;;;3.10;1.50;;;;;;;11.82;84.10;94481.63;5134493;27;20212;-79
2021/06/14 00:46:25;;;;;;;3.37;2.07;;;;;;;11.76;84.96;94486.81;5134441;27;20235;-78
2021/06/14 00:48:51;;;;;;;3.93;2.00;;;;;;;11.65;84.66;94480.28;5134183;27;20586;-81
2021/06/14 00:51:18;;;;;;;8.67;1.83;;;;;;;11.68;83.87;94479.91;5134577;27;20199;-80
2021/06/14 00:53:55;;;;;;;5.20;1.77;;;;;;;11.75;82.56;94470.28;5134403;27;20204;-79
2021/06/14 00:56:21;;;;;;;3.43;1.50;;;;;;;11.86;82.67;94468.97;5134097;27;20200;-78
2021/06/14 00:58:49;;;;;;;3.80;2.03;;;;;;;12.09;80.88;94463.53;5134327;27;20203;-79
2021/06/14 01:01:16;;;;;;;3.37;1.50;;;;;;;12.21;79.02;94461.97;5134615;27;20200;-78
2021/06/14 01:03:42;;;;;;;3.83;1.57;;;;;;;12.10;81.23;94464.31;5134247;27;20203;-79
2021/06/14 01:06:12;;;;;;;7.57;1.40;;;;;;;11.92;82.28;94459.56;5134247;27;20234;-80
2021/06/14 01:08:41;;;;;;;6.23;1.93;;;;;;;11.77;82.67;94457.84;5133922;27;20224;-79
2021/06/14 01:11:13;;;;;;;3.83;1.80;;;;;;;11.80;81.51;94451.41;5132973;27;20436;-79
2021/06/14 01:13:42;;;;;;;3.57;1.80;;;;;;;11.81;81.62;94459.09;5133963;27;20439;-79
2021/06/14 01:16:25;;;;;;;7.43;2.13;;;;;;;11.81;81.48;94447.81;5133404;27;20197;-79
2021/06/14 01:19:00;;;;;;;3.63;1.90;;;;;;;12.14;79.68;94444.59;5134326;27;20192;-79
2021/06/14 01:21:29;;;;;;;6.20;2.13;;;;;;;12.11;82.70;94443.19;5133736;27;20282;-78
2021/06/14 01:24:15;;;;;;;3.00;1.70;;;;;;;12.04;80.59;94447.59;5133766;27;20235;-80
2021/06/14 01:26:47;;;;;;;5.30;1.90;;;;;;;12.11;79.41;94437.97;5134146;27;20189;-79
2021/06/14 01:29:16;;;;;;;6.50;1.80;;;;;;;12.05;79.85;94433.50;5134009;28;20325;-80
2021/06/14 01:31:43;;;;;;;5.70;2.17;;;;;;;12.06;80.41;94431.66;5133900;28;20193;-77
2021/06/14 01:34:10;;;;;;;6.33;1.73;;;;;;;12.16;80.53;94430.34;5133841;28;20205;-78
2021/06/14 01:36:40;;;;;;;5.67;1.90;;;;;;;11.96;80.70;94432.03;5133450;28;20571;-79
2021/06/14 01:39:08;;;;;;;6.97;1.93;;;;;;;11.87;82.18;94425.31;5133546;28;20200;-80
2021/06/14 01:41:36;;;;;;;3.03;1.50;;;;;;;11.81;81.29;94414.59;5133872;28;20259;-79
2021/06/14 01:44:04;;;;;;;3.37;1.50;;;;;;;11.62;83.60;94417.88;5133791;28;20340;-79
2021/06/14 01:46:36;;;;;;;5.30;1.70;;;;;;;11.72;82.74;94423.59;5133368;28;20197;-79
2021/06/14 01:49:04;;;;;;;3.97;1.97;;;;;;;11.60;83.61;94417.28;5133522;28;20217;-79
2021/06/14 01:51:34;;;;;;;3.67;1.77;;;;;;;11.74;84.15;94423.41;5133425;28;20457;-79
2021/06/14 01:54:04;;;;;;;3.57;1.93;;;;;;;11.75;82.28;94410.13;5133789;28;20193;-80
2021/06/14 01:56:33;;;;;;;6.33;1.70;;;;;;;11.63;84.51;94409.06;5133822;27;20192;-78
2021/06/14 01:59:01;;;;;;;6.23;2.17;;;;;;;11.61;83.12;94411.06;5133675;28;20215;-79
2021/06/14 02:01:29;;;;;;;9.20;2.10;;;;;;;11.40;85.22;94415.31;5133409;28;20670;-80
2021/06/14 02:03:58;;;;;;;2.87;1.97;;;;;;;11.54;84.35;94420.66;5133460;28;20208;-80
2021/06/14 02:06:27;;;;;;;6.53;1.87;;;;;;;11.56;83.52;94419.47;5133737;27;20531;-81
2021/06/14 02:08:54;;;;;;;3.93;1.70;;;;;;;11.58;83.33;94412.25;5137459;27;20231;-78
2021/06/14 02:11:21;;;;;;;4.73;2.07;;;;;;;11.53;82.75;94412.00;5137515;27;20201;-80
2021/06/14 02:13:49;;;;;;;4.10;1.77;;;;;;;11.41;84.62;94405.69;5137344;27;20203;-80
2021/06/14 02:16:16;;;;;;;5.20;1.83;;;;;;;11.29;85.19;94408.81;5137161;27;20203;-78
2021/06/14 02:18:43;;;;;;;3.23;1.97;;;;;;;11.35;84.82;94415.09;5137168;27;20570;-81
2021/06/14 02:21:12;;;;;;;4.60;1.80;;;;;;;11.33;84.92;94411.84;5137483;27;20204;-78
2021/06/14 02:23:38;;;;;;;4.13;2.13;;;;;;;11.41;84.73;94406.50;5137019;27;20682;-79
2021/06/14 02:26:05;;;;;;;5.73;1.93;;;;;;;11.35;84.91;94395.97;5137323;27;20224;-79
2021/06/14 02:28:31;;;;;;;7.50;2.10;;;;;;;11.48;84.43;94396.88;5136814;27;20205;-79
2021/06/14 02:30:58;;;;;;;7.03;2.10;;;;;;;11.38;84.87;94396.41;5136880;27;20229;-77
2021/06/14 02:33:25;;;;;;;7.97;1.93;;;;;;;11.42;85.11;94402.88;5137232;27;20201;-80
2021/06/14 02:35:52;;;;;;;6.93;2.28;;;;;;;11.50;83.63;94395.88;5135565;27;20422;-79
2021/06/14 02:38:21;;;;;;;4.87;1.93;;;;;;;11.33;85.56;94390.94;5136940;27;20203;-79
2021/06/14 02:40:47;;;;;;;9.60;2.43;;;;;;;11.26;86.05;94388.28;5136906;27;20208;-78
2021/06/14 02:43:14;;;;;;;6.33;2.17;;;;;;;11.33;85.23;94390.13;5136610;27;20200;-79
2021/06/14 02:45:43;;;;;;;8.00;1.87;;;;;;;11.44;84.00;94389.59;5136598;27;20226;-79
2021/06/14 02:48:11;;;;;;;12.13;1.87;;;;;;;11.38;84.39;94391.19;5136874;27;20200;-79
2021/06/14 02:50:39;;;;;;;4.40;1.97;;;;;;;11.26;85.41;94382.25;5136653;27;20235;-79
2021/06/14 02:53:09;;;;;;;6.97;1.97;;;;;;;11.26;85.18;94380.44;5136696;27;20203;-79
2021/06/14 02:55:47;;;;;;;5.17;1.90;;;;;;;11.28;85.18;94388.88;5136396;27;20554;-79
2021/06/14 02:58:14;;;;;;;6.00;2.10;;;;;;;11.30;84.83;94379.03;5136196;27;20207;-81
2021/06/14 03:00:41;;;;;;;4.20;2.10;;;;;;;11.40;84.51;94383.16;5136345;27;20196;-79
2021/06/14 03:03:08;;;;;;;5.13;2.40;;;;;;;11.27;86.00;94383.84;5136312;27;20295;-79
2021/06/14 03:05:36;;;;;;;6.40;1.83;;;;;;;11.20;86.18;94386.41;5136500;27;20211;-78
2021/06/14 03:08:03;;;;;;;3.77;2.33;;;;;;;11.09;87.62;94387.75;5136554;27;20197;-80
2021/06/14 03:10:31;;;;;;;7.67;2.70;;;;;;;11.00;88.67;94388.06;5136279;27;20235;-80
2021/06/14 03:13:01;;;;;;;6.70;1.80;;;;;;;11.20;87.13;94385.59;5135773;27;20201;-80
2021/06/14 03:15:28;;;;;;;4.63;2.20;;;;;;;11.13;87.02;94387.38;5136244;27;20193;-81
2021/06/14 03:17:56;;;;;;;6.33;2.27;;;;;;;11.20;86.96;94385.59;5136054;27;20197;-80
2021/06/14 03:20:24;;;;;;;6.63;2.23;;;;;;;10.99;88.35;94392.47;5136083;27;20197;-78
2021/06/14 03:22:50;;;;;;;4.40;1.97;;;;;;;10.85;88.73;94394.16;5136219;27;20192;-79
2021/06/14 03:25:18;;;;;;;8.73;2.53;;;;;;;10.71;90.25;94400.25;5135713;27;20593;-81
2021/06/14 03:27:45;;;;;;;8.73;2.37;;;;;;;10.88;89.74;94392.97;5136211;27;20212;-80
2021/06/14 03:30:15;;;;;;;6.40;2.60;;;;;;;10.74;91.24;94395.47;5135715;27;20236;-80
2021/06/14 03:32:43;;;;;;;8.47;2.60;;;;;;;10.77;90.81;94388.25;5135991;27;20193;-80
2021/06/14 03:35:13;;;;;;;3.57;2.03;;;;;;;10.77;90.48;94383.03;5135858;27;20231;-78
2021/06/14 03:37:40;;;;;;;7.47;2.40;;;;;;;10.89;90.25;94377.13;5135792;27;20204;-78
2021/06/14 03:40:09;;;;;;;4.47;2.20;;;;;;;10.88;89.32;94377.31;5135943;27;20204;-81
2021/06/14 03:42:36;;;;;;;6.63;2.40;;;;;;;10.83;90.43;94377.84;5135552;27;20192;-79
2021/06/14 03:45:03;;;;;;;11.83;2.60;;;;;;;11.03;88.87;94372.00;5135417;27;20694;-80
2021/06/14 03:47:30;;;;;;;5.03;2.30;;;;;;;10.94;88.80;94373.91;5135542;27;20647;-80
2021/06/14 03:49:57;;;;;;;6.10;2.37;;;;;;;10.92;89.68;94376.75;5135928;27;20216;-80
2021/06/14 03:52:24;;;;;;;6.23;2.53;;;;;;;11.03;89.01;94380.66;5135865;27;20739;-80
2021/06/14 03:54:50;;;;;;;7.00;2.23;;;;;;;11.16;87.23;94379.97;5135377;27;20660;-81
2021/06/14 03:57:17;;;;;;;5.43;1.80;;;;;;;11.30;87.30;94367.78;5135468;27;20208;-80
2021/06/14 03:59:44;;;;;;;9.63;2.60;;;;;;;11.23;87.62;94362.50;5135140;27;20197;-80
2021/06/14 04:02:10;;;;;;;5.40;2.40;;;;;;;11.38;87.35;94362.41;5135349;27;20204;-78
2021/06/14 04:04:43;;;;;;;4.83;2.40;;;;;;;11.59;85.53;94366.78;5135292;27;20201;-79
2021/06/14 04:07:10;;;;;;;5.50;2.27;;;;;;;11.48;85.71;94362.88;5135213;27;20200;-80
2021/06/14 04:09:37;;;;;;;6.13;2.17;;;;;;;11.61;86.00;94364.78;5135207;27;20449;-81
2021/06/14 04:12:05;;;;;;;4.83;2.30;;;;;;;11.65;84.51;94365.22;5135012;27;20208;-81
2021/06/14 04:14:31;;;;;;;8.03;2.30;;;;;;;11.69;85.07;94360.38;5134659;27;20205;-81
2021/06/14 04:16:58;;;;;;;3.60;1.90;;;;;;;11.73;84.17;94370.28;5134923;27;20193;-80
2021/06/14 04:19:24;;;;;;;5.83;2.10;;;;;;;11.77;83.22;94373.31;5134992;27;20208;-78
2021/06/14 04:21:52;;;;;;;3.27;2.27;;;;;;;12.00;82.56;94368.63;5135112;27;20192;-81
2021/06/14 04:24:18;;;;;;;10.17;2.30;;;;;;;11.98;83.60;94367.22;5134758;27;20236;-78
2021/06/14 04:26:45;;;;;;;4.77;2.03;;;;;;;11.97;83.03;94373.44;5134928;27;20197;-79
2021/06/14 04:29:11;;;;;;;10.17;2.43;;;;;;;11.96;83.07;94371.84;5134094;27;20196;-81
2021/06/14 04:31:38;;;;;;;5.60;2.13;;;;;;;12.08;82.50;94370.28;5134583;27;20221;-78
2021/06/14 04:34:04;;;;;;;5.37;2.30;;;;;;;12.17;82.08;94376.16;5134616;27;20283;-78
2021/06/14 04:36:31;;;;;;;9.43;2.10;;;;;;;12.35;81.77;94365.16;5134607;27;20203;-79
2021/06/14 04:39:00;;;;;;;12.20;2.57;;;;;;;12.38;80.72;94370.00;5134751;27;20201;-80
2021/06/14 04:41:26;;;;;;;6.20;2.50;;;;;;;12.39;81.04;94361.97;5134083;27;21015;-80
2021/06/14 04:43:53;;;;;;;6.87;2.70;;;;;;;12.57;80.20;94369.25;5134394;27;20199;-80
2021/06/14 04:46:19;;;;;;;5.37;2.23;;;;;;;12.58;80.57;94359.59;5134426;27;20204;-80
2021/06/14 04:48:46;;;;;;;4.40;2.33;;;;;;;12.61;81.18;94364.44;5134419;27;20201;-78
2021/06/14 04:51:12;;;;;;;8.93;2.40;;;;;;;12.69;80.24;94360.81;5134410;27;20229;-79
2021/06/14 04:53:40;;;;;;;6.20;2.20;;;;;;;12.72;80.16;94349.94;5134137;27;20563;-79
2021/06/14 04:56:08;;;;;;;5.90;2.40;;;;;;;12.77;80.29;94345.72;5134309;27;20207;-77
2021/06/14 04:58:35;;;;;;;4.00;1.87;;;;;;;12.79;79.83;94350.78;5134333;27;20207;-78
2021/06/14 05:01:02;;;;;;;3.87;2.00;;;;;;;12.87;80.12;94344.50;5133970;27;20196;-79
2021/06/14 05:03:28;;;;;;;10.47;2.40;;;;;;;12.94;80.15;94340.09;5134221;27;20623;-79
2021/06/14 05:05:55;;;;;;;9.90;2.40;;;;;;;13.00;79.93;94335.84;5134077;27;20193;-81
2021/06/14 05:08:22;;;;;;;5.13;2.10;;;;;;;13.09;79.72;94332.84;5134173;27;20472;-79
2021/06/14 05:10:50;;;;;;;6.20;2.10;;;;;;;13.21;78.21;94335.66;5133851;27;20579;-80
2021/06/14 05:13:18;;;;;;;4.20;2.10;;;;;;;13.28;78.52;94338.28;5133888;27;20678;-81
2021/06/14 05:15:45;;;;;;;5.00;2.43;;;;;;;13.39;78.08;94344.72;5133908;27;20203;-80
2021/06/14 05:18:12;;;;;;;11.77;3.23;;;;;;;13.58;76.54;94337.88;5133975;27;20203;-82
2021/06/14 05:20:39;;;;;;;5.80;1.90;;;;;;;13.78;74.73;94338.63;5133584;27;20205;-82
2021/06/14 05:23:05;;;;;;;4.97;2.30;;;;;;;13.90;76.21;94336.16;5133930;27;20591;-83
2021/06/14 05:25:33;;;;;;;7.57;2.40;;;;;;;14.01;74.84;94334.72;5133188;27;20441;-80
2021/06/14 05:27:59;;;;;;;2.97;2.10;;;;;;;14.21;72.92;94337.28;5133923;28;20204;-80
2021/06/14 05:30:27;;;;;;;3.93;2.03;;;;;;;14.35;74.14;94338.81;5133688;28;20223;-80
2021/06/14 05:32:54;;;;;;;4.83;2.00;;;;;;;14.55;73.29;94351.84;5133950;28;20200;-81
2021/06/14 05:35:21;;;;;;;3.77;1.80;;;;;;;14.70;72.05;94343.69;5134302;28;20201;-81
2021/06/14 05:37:49;;;;;;;4.93;2.22;;;;;;;15.13;69.99;94336.94;5133886;28;20210;-80
2021/06/14 05:40:16;;;;;;;5.47;2.03;;;;;;;15.84;67.54;94330.44;5133870;27;20236;-80
2021/06/14 05:42:44;;;;;;;5.60;2.15;;;;;;;16.73;64.31;94331.78;5137965;27;20193;-80
2021/06/14 05:45:11;;;;;;;5.18;1.70;;;;;;;17.93;59.62;94330.66;5138178;27;20196;-80
2021/06/14 05:47:39;;;;;;;4.88;1.77;;;;;;;18.69;57.88;94335.06;5138263;27;20208;-79
2021/06/14 05:50:07;;;;;;;3.28;1.60;;;;;;;19.15;55.61;94338.53;5137710;27;20220;-82
2021/06/14 05:52:34;;;;;;;4.10;1.85;;;;;;;19.87;53.07;94326.38;5137828;27;20192;-79
2021/06/14 05:55:00;;;;;;;2.97;1.48;;;;;;;20.97;50.98;94336.16;5137837;27;20196;-81
2021/06/14 05:57:27;;;;;;;3.80;1.52;;;;;;;20.78;50.78;94329.56;5137276;27;20655;-80
2021/06/14 05:59:53;;;;;;;4.10;1.65;;;;;;;20.60;50.50;94330.69;5137937;27;20196;-81
2021/06/14 06:02:20;;;;;;;4.63;1.50;;;;;;;20.02;51.26;94338.22;5137577;27;20200;-78
2021/06/14 06:04:48;;;;;;;4.60;1.55;;;;;;;19.45;52.93;94333.94;5137587;27;20278;-78
2021/06/14 06:07:14;;;;;;;8.02;1.75;;;;;;;19.79;51.96;94340.03;5137512;27;20193;-79
2021/06/14 06:09:41;;;;;;;3.55;1.70;;;;;;;19.85;53.58;94333.78;5137381;27;20292;-79
2021/06/14 06:12:08;;;;;;;4.53;1.73;;;;;;;19.66;52.79;94335.06;5137267;27;20220;-79
2021/06/14 06:14:35;;;;;;;4.72;1.70;;;;;;;20.06;52.72;94328.75;5137519;27;20203;-79
2021/06/14 06:17:01;;;;;;;7.93;1.80;;;;;;;20.03;53.09;94331.88;5137392;27;20674;-79
2021/06/14 06:19:28;;;;;;;4.10;1.75;;;;;;;19.30;53.94;94331.84;5137347;27;20203;-79
2021/06/14 06:21:56;;;;;;;4.43;1.58;;;;;;;18.89;55.10;94339.16;5137320;27;20287;-77
2021/06/14 06:24:23;;;;;;;4.35;1.50;;;;;;;19.46;53.32;94331.06;5136982;27;20232;-78
2021/06/14 06:26:49;;;;;;;3.58;1.48;;;;;;;19.36;55.29;94330.91;5137082;27;20197;-79
2021/06/14 06:29:16;;;;;;;7.18;1.75;;;;;;;18.31;56.69;94325.88;5136802;27;20559;-77
2021/06/14 06:31:42;;;;;;;4.10;1.60;;;;;;;17.99;56.58;94331.59;5137104;27;20259;-78
2021/06/14 06:34:09;;;;;;;3.45;1.60;;;;;;;17.86;57.95;94332.59;5136781;27;20567;-81
2021/06/14 06:36:35;;;;;;;4.30;1.73;;;;;;;18.09;57.12;94326.50;5136932;27;20663;-80
2021/06/14 06:39:04;;;;;;;6.22;1.80;;;;;;;18.03;59.72;94334.56;5136859;27;20203;-80
2021/06/14 06:41:30;;;;;;;6.10;1.88;;;;;;;17.93;58.23;94329.88;5137040;27;20197;-80
2021/06/14 06:43:57;;;;;;;4.07;1.67;;;;;;;17.88;57.40;94337.69;5137099;27;20203;-80
2021/06/14 06:46:23;;;;;;;5.57;1.58;;;;;;;18.39;57.79;94340.56;5136903;27;20480;-78
2021/06/14 06:48:50;;;;;;;4.72;1.60;;;;;;;18.22;58.21;94328.09;5137457;27;20650;-80
2021/06/14 06:51:16;;;;;;;4.50;1.55;;;;;;;18.20;57.49;94332.81;5136676;27;20560;-80
2021/06/14 06:53:43;;;;;;;4.18;1.60;;;;;;;18.33;56.57;94333.56;5135883;27;20238;-80
2021/06/14 06:56:11;;;;;;;5.10;2.00;;;;;;;18.05;56.50;94332.50;5136774;27;20192;-80
2021/06/14 06:58:38;;;;;;;4.43;1.30;;;;;;;18.20;56.45;94340.75;5136762;27;20269;-82
2021/06/14 07:01:04;;;;;;;5.22;2.10;;;;;;;18.05;57.78;94333.31;5136948;27;20231;-81
2021/06/14 07:03:31;;;;;;;4.57;1.70;;;;;;;17.96;58.13;94337.34;5136292;27;20208;-80
2021/06/14 07:05:57;;;;;;;4.47;1.70;;;;;;;18.01;57.02;94336.66;5136336;27;20189;-79
2021/06/14 07:08:24;;;;;;;3.55;1.60;;;;;;;17.88;59.50;94335.03;5136864;27;20200;-79
2021/06/14 07:10:51;;;;;;;8.32;1.67;;;;;;;17.86;59.57;94334.44;5136765;27;20224;-82
2021/06/14 07:13:20;;;;;;;6.15;1.80;;;;;;;18.08;61.52;94340.75;5136642;27;20207;-79
2021/06/14 07:15:46;;;;;;;4.13;1.58;;;;;;;18.09;59.31;94334.44;5136434;27;20635;-82
2021/06/14 07:18:13;;;;;;;2.78;1.75;;;;;;;18.06;57.78;94337.53;5136243;27;20207;-80
2021/06/14 07:20:39;;;;;;;2.58;1.52;;;;;;;18.15;58.84;94343.25;5135573;27;20204;-81
2021/06/14 07:23:06;;;;;;;4.75;2.03;;;;;;;18.08;58.13;94343.38;5135508;27;20189;-81
2021/06/14 07:25:34;;;;;;;4.22;2.08;;;;;;;18.09;58.21;94337.09;5135933;27;20228;-80
2021/06/14 07:28:02;;;;;;;5.00;2.08;;;;;;;18.10;57.05;94335.22;5136096;27;20281;-79
2021/06/14 07:30:31;;;;;;;6.25;2.15;;;;;;;18.08;56.48;94332.81;5135863;27;20204;-80
2021/06/14 07:32:58;;;;;;;5.88;1.70;;;;;;;18.16;58.23;94333.50;5135889;27;20205;-77
2021/06/14 07:35:25;;;;;;;4.50;1.80;;;;;;;18.33;57.07;94330.94;5136117;27;20246;-80
2021/06/14 07:37:52;;;;;;;7.05;1.95;;;;;;;18.31;59.16;94333.81;5135891;27;20197;-79
2021/06/14 07:40:18;;;;;;;4.43;2.00;;;;;;;18.38;56.33;94326.53;5135718;27;20678;-79
2021/06/14 07:42:45;;;;;;;2.45;1.60;;;;;;;18.44;56.52;94324.81;5135620;27;20659;-80
2021/06/14 07:45:20;;;;;;;9.95;1.88;;;;;;;18.52;57.17;94321.78;5135720;27;20196;-79
2021/06/14 07:47:48;;;;;;;5.22;1.85;;;;;;;18.58;55.31;94325.31;5135610;27;20203;-81
2021/06/14 07:50:17;;;;;;;5.78;1.77;;;;;;;18.79;56.85;94322.00;5135770;27;20208;-81
2021/06/14 07:52:44;;;;;;;3.80;1.50;;;;;;;18.81;55.03;94322.56;5136179;27;20323;-80
2021/06/14 07:55:12;;;;;;;4.65;1.80;;;;;;;18.93;52.70;94327.03;5135608;27;20197;-81
2021/06/14 07:57:39;;;;;;;2.78;1.50;;;;;;;18.94;57.93;94323.34;5135517;27;20203;-82
2021/06/14 08:00:09;;;;;;;5.60;1.77;;;;;;;19.08;54.13;94334.44;5135316;27;20201;-82
2021/06/14 08:02:35;;;;;;;2.22;1.55;;;;;;;19.12;55.48;94330.25;5135164;27;20204;-80
2021/06/14 08:05:05;;;;;;;4.78;1.40;;;;;;;19.16;54.38;94336.69;5134433;27;20201;-83
2021/06/14 08:07:32;;;;;;;9.45;1.75;;;;;;;19.29;53.17;94325.78;5135087;27;20541;-80
2021/06/14 08:10:03;;;;;;;3.92;1.70;;;;;;;19.26;51.65;94312.22;5134920;27;20200;-81
2021/06/14 08:12:30;;;;;;;4.03;1.65;;;;;;;19.37;55.38;94319.28;5135134;27;20232;-83
2021/06/14 08:14:57;;;;;;;6.50;1.90;;;;;;;19.51;52.36;94323.19;5135571;27;20663;-85
2021/06/14 08:17:23;;;;;;;5.47;1.70;;;;;;;19.53;50.86;94321.09;5122440;27;20208;-81
2021/06/14 08:20:02;;;;;;;3.72;1.40;;;;;;;19.49;51.00;94329.78;5115360;28;20201;-80
2021/06/14 08:22:40;;;;;;;2.83;1.33;;;;;;;19.61;54.65;94322.53;5129755;27;20201;-85
2021/06/14 08:25:10;;;;;;;5.40;1.40;;;;;;;19.61;51.22;94322.53;5115214;28;20235;-83
2021/06/14 08:27:39;;;;;;;2.72;1.45;;;;;;;19.76;50.54;94329.94;5114796;28;20209;-84
2021/06/14 08:30:10;;;;;;;3.45;1.52;;;;;;;19.75;49.64;94328.31;5114917;28;20200;-80
2021/06/14 08:32:37;;;;;;;4.55;1.38;;;;;;;19.75;51.05;94328.31;5114932;28;20584;-81
2021/06/14 08:35:06;;;;;;;3.75;1.73;;;;;;;19.87;51.73;94328.25;5114253;28;20647;-81
2021/06/14 08:37:37;;;;;;;3.85;1.27;;;;;;;19.87;50.56;94323.72;5114224;28;20679;-80
2021/06/14 08:40:06;;;;;;;4.15;1.33;;;;;;;19.91;49.55;94319.53;5114175;28;20209;-81
2021/06/14 08:42:33;;;;;;;1.95;1.30;;;;;;;20.00;50.61;94325.22;5113788;28;20287;-81
2021/06/14 08:45:00;;;;;;;7.32;1.40;;;;;;;19.94;49.32;94321.69;5113908;28;20284;-80
2021/06/14 08:47:29;;;;;;;2.20;1.38;;;;;;;20.06;47.93;94323.44;5113831;28;20201;-81
2021/06/14 08:49:57;;;;;;;6.53;1.30;;;;;;;20.19;50.98;94311.66;5113825;28;20292;-81
2021/06/14 08:52:24;;;;;;;3.78;1.50;;;;;;;20.36;51.52;94306.28;5114689;28;20311;-81
2021/06/14 08:54:55;;;;;;;2.08;1.30;;;;;;;20.36;46.51;94306.28;5113796;28;20205;-84
2021/06/14 08:57:21;;;;;;;4.10;1.35;;;;;;;20.34;49.35;94309.97;5114856;28;20289;-83
2021/06/14 08:59:48;;;;;;;4.70;1.45;;;;;;;20.44;49.46;94309.31;5114820;28;20204;-82
2021/06/14 09:02:19;;;;;;;2.20;1.00;;;;;;;20.56;49.24;94295.88;5114284;28;20201;-83
2021/06/14 09:04:46;;;;;;;3.13;1.42;;;;;;;20.60;49.41;94302.31;5113534;28;20197;-81
2021/06/14 09:07:13;;;;;;;2.15;1.42;;;;;;;20.67;47.55;94300.28;5129204;27;20741;-82
2021/06/14 09:09:40;;;;;;;1.75;1.10;;;;;;;20.69;47.10;94303.50;5134393;27;20201;-81
2021/06/14 09:12:09;;;;;;;4.05;1.20;;;;;;;20.69;44.35;94295.53;5134480;27;20228;-82
2021/06/14 09:14:40;;;;;;;2.20;1.30;;;;;;;20.77;47.29;94291.63;5133924;27;20228;-79
2021/06/14 09:17:17;;;;;;;3.40;1.40;;;;;;;20.86;47.23;94287.44;5134035;27;20199;-82
2021/06/14 09:19:51;;;;;;;6.65;1.30;;;;;;;20.93;45.57;94294.41;5134213;27;20204;-80
2021/06/14 09:22:20;;;;;;;4.45;1.27;;;;;;;20.97;49.72;94291.00;5134081;27;20200;-78
2021/06/14 09:24:54;;;;;;;5.22;1.48;;;;;;;21.12;49.99;94286.91;5133077;27;20256;-79
2021/06/14 09:27:34;;;;;;;3.50;1.50;;;;;;;21.16;47.00;94282.66;5133851;27;20281;-80
2021/06/14 09:30:12;;;;;;;1.67;1.10;;;;;;;21.12;44.79;94287.69;5133824;28;20728;-79
2021/06/14 09:32:50;;;;;;;2.65;1.10;;;;;;;21.16;47.92;94282.66;5134063;28;20231;-79
2021/06/14 09:35:17;;;;;;;5.10;1.55;;;;;;;21.15;48.07;94291.66;5133932;28;20204;-80
2021/06/14 09:37:43;;;;;;;2.42;1.17;;;;;;;21.31;48.24;94277.47;5133719;28;20786;-80
2021/06/14 09:40:11;;;;;;;3.60;1.40;;;;;;;21.53;49.85;94281.88;5133376;28;20433;-79
2021/06/14 09:42:42;;;;;;;2.58;1.55;;;;;;;21.54;52.04;94273.66;5133853;28;20200;-80
2021/06/14 09:45:09;;;;;;;4.07;1.40;;;;;;;21.37;46.32;94279.09;5133877;28;20655;-77
2021/06/14 09:47:38;;;;;;;3.33;1.83;;;;;;;21.34;45.41;94274.28;5133725;28;20193;-81
2021/06/14 09:50:08;;;;;;;2.40;1.10;;;;;;;21.35;45.75;94278.56;5133790;28;20628;-78
2021/06/14 09:52:35;;;;;;;2.63;1.20;;;;;;;21.41;46.15;94282.84;5133389;28;20232;-78
2021/06/14 09:55:09;;;;;;;3.28;1.20;;;;;;;21.70;46.44;94281.72;5132427;28;20239;-77
2021/06/14 09:57:36;;;;;;;5.13;1.25;;;;;;;21.75;46.75;94282.56;5132489;28;20250;-78
2021/06/14 10:00:09;;;;;;;2.13;1.30;;;;;;;21.88;47.23;94278.63;5133364;28;20201;-78
2021/06/14 10:02:36;;;;;;;3.17;0.90;;;;;;;21.95;54.74;94278.41;5133606;28;20204;-78
2021/06/14 10:05:15;;;;;;;3.45;1.45;;;;;;;21.76;43.74;94291.31;5133567;28;20200;-78
2021/06/14 10:07:46;;;;;;;6.78;1.52;;;;;;;21.78;47.30;94276.72;5133613;28;20201;-79
2021/06/14 10:10:20;;;;;;;4.80;1.30;;;;;;;21.78;46.80;94278.56;5133759;27;20201;-79
2021/06/14 10:12:49;;;;;;;2.97;1.30;;;;;;;21.84;45.50;94284.72;5133457;28;20260;-78
2021/06/14 10:15:18;;;;;;;3.65;1.02;;;;;;;21.78;42.34;94275.91;5133628;28;20201;-78
2021/06/14 10:17:47;;;;;;;2.15;0.95;;;;;;;21.95;44.93;94278.41;5133403;28;20555;-78
2021/06/14 10:20:16;;;;;;;2.50;1.10;;;;;;;22.15;48.14;94272.38;5133557;27;20200;-78
2021/06/14 10:22:44;;;;;;;4.38;1.33;;;;;;;22.32;48.84;94267.66;5133519;28;20197;-77
2021/06/14 10:25:14;;;;;;;5.07;1.38;;;;;;;22.52;47.17;94264.25;5133035;28;20232;-78
2021/06/14 10:27:42;;;;;;;3.08;1.30;;;;;;;22.44;45.09;94263.97;5134021;27;20207;-78
2021/06/14 10:30:11;;;;;;;2.13;1.20;;;;;;;22.38;44.22;94263.16;5137321;27;20254;-78
2021/06/14 10:32:43;;;;;;;1.95;1.10;;;;;;;22.37;41.94;94260.78;5137208;27;20224;-78
2021/06/14 10:35:12;;;;;;;3.95;1.17;;;;;;;22.46;46.43;94252.00;5137107;27;20726;-78
2021/06/14 10:37:43;;;;;;;6.65;1.45;;;;;;;22.53;52.29;94252.56;5137152;27;20207;-78
2021/06/14 10:40:12;;;;;;;6.50;1.60;;;;;;;22.40;45.10;94253.06;5137051;27;20302;-77
2021/06/14 10:42:40;;;;;;;1.67;1.08;;;;;;;22.48;44.47;94249.88;5136851;27;20197;-78
2021/06/14 10:45:08;;;;;;;2.50;1.30;;;;;;;22.49;46.14;94251.47;5136757;27;20291;-78
2021/06/14 10:47:36;;;;;;;4.28;1.40;;;;;;;22.43;42.25;94239.25;5137081;27;20200;-78
2021/06/14 10:50:04;;;;;;;2.40;1.27;;;;;;;22.44;42.08;94240.81;5136839;27;20727;-78
2021/06/14 10:52:39;;;;;;;1.63;1.25;;;;;;;22.79;46.80;94249.91;5136184;27;20288;-77
2021/06/14 10:55:09;;;;;;;2.22;1.00;;;;;;;22.90;46.13;94246.22;5136731;27;20200;-78
2021/06/14 10:57:36;;;;;;;3.30;1.55;;;;;;;23.03;45.34;94238.75;5136875;27;20197;-78
2021/06/14 11:00:07;;;;;;;3.42;1.10;;;;;;;23.04;42.13;94245.66;5136666;27;20249;-78
2021/06/14 11:02:33;;;;;;;1.45;1.00;;;;;;;23.00;41.93;94239.25;5136746;27;20563;-78
2021/06/14 11:05:08;;;;;;;5.28;1.17;;;;;;;23.08;42.66;94241.44;5136555;27;20192;-77
2021/06/14 11:07:35;;;;;;;3.97;1.40;;;;;;;23.18;40.66;94228.13;5136516;27;20196;-77
2021/06/14 11:10:14;;;;;;;2.80;1.10;;;;;;;23.27;43.00;94226.50;5136315;27;20201;-77
2021/06/14 11:12:40;;;;;;;3.00;1.23;;;;;;;23.18;43.03;94217.47;5136461;27;20628;-77
2021/06/14 11:15:09;;;;;;;1.40;1.00;;;;;;;23.35;40.88;94216.34;5136472;27;20289;-76
2021/06/14 11:17:37;;;;;;;4.85;1.27;;;;;;;23.27;43.01;94217.72;5136231;27;20207;-77
2021/06/14 11:20:11;;;;;;;3.45;1.17;;;;;;;23.28;42.24;94212.13;5136282;27;20291;-77
2021/06/14 11:22:40;;;;;;;1.92;1.02;;;;;;;23.58;40.05;94206.97;5135780;27;20253;-77
2021/06/14 11:25:17;;;;;;;3.55;1.42;;;;;;;23.68;41.32;94195.47;5136067;27;20315;-77
2021/06/14 11:27:44;;;;;;;1.58;0.90;;;;;;;24.00;39.26;94205.81;5136362;27;20208;-78
2021/06/14 11:30:14;;;;;;;6.57;1.10;;;;;;;23.82;41.97;94191.19;5134768;27;20278;-77
2021/06/14 11:32:41;;;;;;;2.95;1.00;;;;;;;24.14;41.46;94188.09;5134862;27;20281;-77
2021/06/14 11:35:09;;;;;;;3.33;1.00;;;;;;;24.02;39.24;94185.78;5135435;27;20551;-77
2021/06/14 11:37:37;;;;;;;5.57;0.98;;;;;;;24.05;40.14;94183.63;5135877;27;20193;-79
2021/06/14 11:40:06;;;;;;;2.28;0.95;;;;;;;23.89;43.27;94186.38;5135749;27;20197;-77